createdAt,value
2022-11-27T00:01:22.884Z,5.67
2022-11-27T00:03:49.848Z,5.80
2022-11-27T00:06:22.743Z,5.77
2022-11-27T00:08:49.387Z,5.67
2022-11-27T00:11:21.271Z,5.72
2022-11-27T00:13:48.483Z,5.77
2022-11-27T00:16:15.466Z,5.76
2022-11-27T00:18:42.378Z,5.72
2022-11-27T00:21:15.059Z,5.73
2022-11-27T00:23:43.646Z,5.70
2022-11-27T00:26:11.139Z,5.75
2022-11-27T00:28:38.131Z,5.73
2022-11-27T00:31:13.032Z,5.70
2022-11-27T00:33:39.606Z,5.66
2022-11-27T00:36:09.386Z,5.76
2022-11-27T00:38:39.191Z,5.73
2022-11-27T00:41:11.462Z,5.63
2022-11-27T00:43:44.432Z,5.66
2022-11-27T00:46:16.030Z,5.69
2022-11-27T00:48:43.277Z,5.63
2022-11-27T00:51:12.532Z,5.58
2022-11-27T00:53:39.048Z,5.55
2022-11-27T00:56:05.713Z,5.59
2022-11-27T01:00:36.008Z,5.44
2022-11-27T01:03:02.530Z,5.51
2022-11-27T01:05:28.975Z,5.42
2022-11-27T01:07:55.348Z,5.44
2022-11-27T01:10:21.727Z,5.44
2022-11-27T01:12:51.431Z,5.55
2022-11-27T01:15:18.316Z,5.54
2022-11-27T01:17:44.863Z,5.49
2022-11-27T01:20:11.649Z,5.46
2022-11-27T01:22:38.090Z,5.46
2022-11-27T01:25:04.918Z,5.41
2022-11-27T01:27:31.602Z,5.46
2022-11-27T01:29:58.038Z,5.41
2022-11-27T01:32:24.420Z,5.42
2022-11-27T01:34:51.179Z,5.39
2022-11-27T01:37:17.564Z,5.46
2022-11-27T01:39:44.088Z,5.44
2022-11-27T01:42:13.525Z,5.45
2022-11-27T01:44:48.905Z,5.46
2022-11-27T01:47:23.732Z,5.46
2022-11-27T01:49:53.641Z,5.39
2022-11-27T01:52:25.788Z,5.28
2022-11-27T01:55:01.805Z,5.27
2022-11-27T01:57:38.774Z,5.39
2022-11-27T02:00:12.988Z,5.39
2022-11-27T02:02:41.223Z,5.37
2022-11-27T02:05:08.666Z,5.32
2022-11-27T02:07:35.705Z,5.28
2022-11-27T02:10:03.980Z,5.28
2022-11-27T02:12:41.855Z,5.18
2022-11-27T02:15:20.384Z,5.18
2022-11-27T02:18:19.496Z,5.18
2022-11-27T02:21:13.698Z,5.23
2022-11-27T02:24:08.267Z,5.28
2022-11-27T02:26:57.481Z,5.23
2022-11-27T02:29:27.212Z,5.17
2022-11-27T02:32:15.041Z,5.18
2022-11-27T02:34:50.615Z,5.14
2022-11-27T02:37:32.625Z,5.13
2022-11-27T02:40:12.152Z,5.10
2022-11-27T02:42:50.218Z,5.17
2022-11-27T02:45:22.433Z,5.14
2022-11-27T02:47:50.680Z,5.18
2022-11-27T02:50:23.675Z,5.07
2022-11-27T02:52:55.288Z,5.10
2022-11-27T02:55:26.899Z,4.98
2022-11-27T02:57:57.100Z,5.03
2022-11-27T03:00:23.798Z,4.97
2022-11-27T03:02:57.587Z,5.00
2022-11-27T03:05:28.472Z,4.96
2022-11-27T03:08:27.329Z,5.01
2022-11-27T03:11:00.932Z,5.00
2022-11-27T03:13:28.806Z,5.03
2022-11-27T03:16:12.371Z,4.93
2022-11-27T03:19:14.159Z,4.94
2022-11-27T03:21:43.546Z,4.94
2022-11-27T03:24:12.027Z,4.88
2022-11-27T03:26:40.376Z,4.79
2022-11-27T03:29:12.185Z,4.86
2022-11-27T03:31:38.733Z,4.87
2022-11-27T03:34:08.602Z,4.87
2022-11-27T03:36:35.079Z,4.90
2022-11-27T03:39:02.073Z,4.87
2022-11-27T03:41:40.535Z,4.93
2022-11-27T03:44:26.125Z,4.91
2022-11-27T03:47:03.866Z,4.94
2022-11-27T03:49:37.926Z,4.94
2022-11-27T03:52:31.129Z,4.90
2022-11-27T03:55:08.268Z,4.91
2022-11-27T03:57:44.571Z,4.96
2022-11-27T04:00:11.868Z,4.97
2022-11-27T04:02:49.885Z,4.97
2022-11-27T04:05:16.811Z,5.00
2022-11-27T04:07:43.228Z,5.01
2022-11-27T04:10:10.241Z,5.00
2022-11-27T04:12:37.011Z,5.01
2022-11-27T04:15:04.443Z,5.04
2022-11-27T04:17:30.818Z,5.01
2022-11-27T04:19:57.347Z,4.97
2022-11-27T04:22:23.796Z,5.04
2022-11-27T04:24:50.693Z,5.04
2022-11-27T04:27:17.743Z,5.08
2022-11-27T04:29:44.279Z,5.04
2022-11-27T04:32:10.762Z,5.07
2022-11-27T04:34:37.149Z,5.08
2022-11-27T04:37:03.576Z,5.04
2022-11-27T04:39:30.022Z,5.07
2022-11-27T04:41:56.566Z,5.07
2022-11-27T04:44:23.105Z,5.14
2022-11-27T04:46:50.345Z,5.10
2022-11-27T04:49:17.099Z,5.11
2022-11-27T04:51:44.076Z,5.10
2022-11-27T04:54:10.501Z,5.13
2022-11-27T04:56:36.856Z,5.16
2022-11-27T04:59:04.895Z,5.14
2022-11-27T05:01:31.693Z,5.14
2022-11-27T05:03:58.182Z,5.17
2022-11-27T05:06:24.638Z,5.16
2022-11-27T05:08:51.151Z,5.17
2022-11-27T05:11:17.931Z,5.21
2022-11-27T05:13:44.736Z,5.21
2022-11-27T05:16:11.362Z,5.17
2022-11-27T05:18:37.943Z,5.25
2022-11-27T05:21:06.826Z,5.27
2022-11-27T05:23:34.306Z,5.24
2022-11-27T05:26:01.022Z,5.30
2022-11-27T05:28:27.790Z,5.23
2022-11-27T05:30:54.645Z,5.27
2022-11-27T05:33:21.101Z,5.32
2022-11-27T05:35:48.044Z,5.34
2022-11-27T05:38:14.408Z,5.32
2022-11-27T05:40:40.953Z,5.37
2022-11-27T05:43:07.327Z,5.35
2022-11-27T05:45:33.877Z,5.41
2022-11-27T05:48:00.268Z,5.41
2022-11-27T05:50:26.682Z,5.44
2022-11-27T05:52:53.003Z,5.41
2022-11-27T05:55:19.524Z,5.46
2022-11-27T05:57:45.874Z,5.46
2022-11-27T06:00:13.149Z,5.48
2022-11-27T06:02:39.697Z,5.46
2022-11-27T06:05:06.712Z,5.48
2022-11-27T06:07:33.100Z,5.51
2022-11-27T06:09:59.527Z,5.51
2022-11-27T06:12:25.879Z,5.54
2022-11-27T06:14:52.300Z,5.51
2022-11-27T06:17:18.708Z,5.59
2022-11-27T06:19:45.155Z,5.55
2022-11-27T06:22:11.483Z,5.55
2022-11-27T06:24:37.945Z,5.58
2022-11-27T06:27:04.462Z,5.60
2022-11-27T06:29:30.866Z,5.60
2022-11-27T06:31:57.287Z,5.62
2022-11-27T06:34:23.814Z,5.63
2022-11-27T06:36:51.150Z,5.65
2022-11-27T06:39:17.688Z,5.67
2022-11-27T06:41:44.093Z,5.66
2022-11-27T06:44:10.948Z,5.69
2022-11-27T06:46:37.407Z,5.72
2022-11-27T06:49:04.050Z,5.76
2022-11-27T06:51:32.092Z,5.77
2022-11-27T06:54:02.295Z,5.73
2022-11-27T06:56:31.094Z,5.77
2022-11-27T06:59:00.145Z,5.77
2022-11-27T07:01:28.303Z,5.77
2022-11-27T07:03:55.978Z,5.82
2022-11-27T07:06:24.908Z,5.82
2022-11-27T07:08:52.215Z,5.85
2022-11-27T07:11:21.715Z,5.79
2022-11-27T07:13:50.216Z,5.80
2022-11-27T07:16:17.479Z,5.83
2022-11-27T07:18:49.559Z,5.82
2022-11-27T07:21:16.397Z,5.86
2022-11-27T07:23:43.103Z,5.85
2022-11-27T07:26:15.139Z,5.96
2022-11-27T07:28:44.033Z,6.07
2022-11-27T07:32:36.543Z,6.03
2022-11-27T07:35:02.971Z,6.07
2022-11-27T07:37:33.101Z,6.10
2022-11-27T07:40:02.928Z,6.10
2022-11-27T07:42:37.849Z,6.18
2022-11-27T07:45:05.768Z,6.25
2022-11-27T07:47:32.110Z,6.24
2022-11-27T07:50:00.364Z,6.28
2022-11-27T07:52:27.311Z,6.30
2022-11-27T07:54:54.409Z,6.33
2022-11-27T07:57:20.903Z,6.38
2022-11-27T07:59:47.900Z,6.40
2022-11-27T08:02:16.157Z,6.48
2022-11-27T08:04:42.993Z,6.51
2022-11-27T08:07:09.583Z,6.54
2022-11-27T08:09:36.351Z,6.65
2022-11-27T08:12:02.795Z,6.69
2022-11-27T08:14:29.299Z,6.74
2022-11-27T08:16:56.143Z,6.75
2022-11-27T08:19:23.075Z,6.79
2022-11-27T08:21:50.167Z,6.82
2022-11-27T08:24:16.946Z,6.86
2022-11-27T08:26:43.424Z,6.93
2022-11-27T08:29:13.320Z,6.96
2022-11-27T08:31:39.986Z,6.99
2022-11-27T08:34:06.676Z,7.05
2022-11-27T08:36:33.247Z,7.07
2022-11-27T08:38:59.636Z,7.14
2022-11-27T08:41:26.141Z,7.17
2022-11-27T08:43:53.188Z,7.16
2022-11-27T08:46:19.692Z,7.17
2022-11-27T08:48:46.085Z,7.20
2022-11-27T08:51:14.968Z,7.31
2022-11-27T08:53:41.666Z,7.31
2022-11-27T08:56:09.740Z,7.44
2022-11-27T08:58:36.308Z,7.44
2022-11-27T09:01:12.405Z,7.50
2022-11-27T09:03:38.979Z,7.53
2022-11-27T09:06:14.994Z,7.54
2022-11-27T09:08:43.016Z,7.54
2022-11-27T09:11:12.074Z,7.57
2022-11-27T09:13:40.418Z,7.61
2022-11-27T09:16:09.572Z,7.68
2022-11-27T09:18:36.203Z,7.65
2022-11-27T09:21:13.545Z,7.65
2022-11-27T09:23:40.512Z,7.65
2022-11-27T09:26:13.063Z,7.65
2022-11-27T09:28:40.874Z,7.74
2022-11-27T09:31:09.858Z,7.67
2022-11-27T09:33:38.625Z,7.68
2022-11-27T09:36:13.776Z,7.75
2022-11-27T09:38:40.518Z,7.75
2022-11-27T09:41:18.894Z,7.82
2022-11-27T09:44:02.367Z,7.86
2022-11-27T09:46:38.749Z,7.93
2022-11-27T09:49:09.201Z,8.13
2022-11-27T09:51:59.407Z,8.13
2022-11-27T09:54:54.549Z,8.22
2022-11-27T09:57:29.262Z,8.37
2022-11-27T10:00:01.454Z,8.37
2022-11-27T10:02:30.950Z,8.40
2022-11-27T10:05:13.428Z,8.40
2022-11-27T10:08:16.072Z,8.49
2022-11-27T10:10:58.379Z,8.61
2022-11-27T10:13:46.593Z,8.65
2022-11-27T10:16:25.784Z,8.46
2022-11-27T10:19:03.163Z,8.61
2022-11-27T10:21:46.873Z,8.77
2022-11-27T10:24:22.636Z,8.89
2022-11-27T10:26:50.685Z,8.80
2022-11-27T10:29:34.700Z,8.71
2022-11-27T10:32:53.992Z,8.68
2022-11-27T10:35:20.450Z,8.78
2022-11-27T10:37:56.176Z,8.81
2022-11-27T10:40:34.283Z,8.81
2022-11-27T10:43:12.634Z,8.91
2022-11-27T10:45:47.996Z,8.81
2022-11-27T10:48:15.453Z,8.89
2022-11-27T10:50:42.536Z,8.84
2022-11-27T10:53:25.786Z,8.95
2022-11-27T10:55:58.404Z,8.95
2022-11-27T10:58:36.573Z,8.92
2022-11-27T11:01:12.056Z,9.02
2022-11-27T11:03:38.963Z,9.00
2022-11-27T11:06:20.976Z,9.04
2022-11-27T11:09:01.536Z,9.11
2022-11-27T11:11:28.397Z,9.12
2022-11-27T11:13:55.721Z,9.23
2022-11-27T11:16:34.818Z,9.38
2022-11-27T11:19:02.516Z,9.31
2022-11-27T11:21:35.405Z,9.33
2022-11-27T11:24:06.149Z,9.40
2022-11-27T11:26:46.320Z,9.42
2022-11-27T11:29:34.719Z,9.32
2022-11-27T11:32:12.980Z,9.40
2022-11-27T11:35:01.833Z,9.38
2022-11-27T11:37:54.874Z,9.47
2022-11-27T11:40:33.874Z,9.53
2022-11-27T11:43:03.646Z,9.44
2022-11-27T11:45:33.191Z,9.39
2022-11-27T11:48:00.905Z,9.46
2022-11-27T11:50:41.206Z,9.52
2022-11-27T11:53:18.995Z,9.43
2022-11-27T11:55:54.401Z,9.44
2022-11-27T11:58:45.791Z,9.47
2022-11-27T12:01:27.209Z,9.46
2022-11-27T12:04:15.697Z,9.46
2022-11-27T12:07:00.503Z,9.46
2022-11-27T12:09:51.916Z,9.44
2022-11-27T12:12:47.782Z,9.50
2022-11-27T12:15:29.963Z,9.53
2022-11-27T12:18:23.829Z,9.49
2022-11-27T12:20:59.617Z,9.62
2022-11-27T12:23:47.169Z,9.62
2022-11-27T12:26:22.503Z,9.76
2022-11-27T12:29:26.974Z,9.66
2022-11-27T12:32:01.785Z,9.56
2022-11-27T12:34:44.203Z,9.54
2022-11-27T12:37:35.568Z,9.44
2022-11-27T12:40:35.468Z,9.49
2022-11-27T12:43:25.529Z,9.50
2022-11-27T12:46:02.448Z,9.47
2022-11-27T12:48:35.742Z,9.49
2022-11-27T12:51:12.752Z,9.40
2022-11-27T12:54:12.895Z,9.44
2022-11-27T12:56:44.413Z,9.44
2022-11-27T12:59:43.339Z,9.46
2022-11-27T13:02:09.768Z,9.54
2022-11-27T13:04:49.909Z,9.60
2022-11-27T13:07:39.964Z,9.62
2022-11-27T13:10:12.837Z,9.57
2022-11-27T13:12:43.427Z,9.66
2022-11-27T13:15:37.176Z,9.67
2022-11-27T13:18:31.255Z,9.66
2022-11-27T13:21:00.985Z,9.64
2022-11-27T13:23:31.860Z,9.66
2022-11-27T13:26:01.909Z,9.64
2022-11-27T13:28:46.100Z,9.71
2022-11-27T13:31:28.106Z,9.77
2022-11-27T13:34:02.021Z,9.77
2022-11-27T13:36:40.686Z,9.77
2022-11-27T13:39:18.013Z,9.71
2022-11-27T13:41:44.477Z,9.77
2022-11-27T13:44:26.111Z,9.81
2022-11-27T13:46:56.414Z,9.77
2022-11-27T13:49:33.972Z,9.79
2022-11-27T13:52:25.453Z,9.84
2022-11-27T13:57:56.713Z,9.81
2022-11-27T14:00:37.954Z,9.81
2022-11-27T14:03:06.732Z,9.79
2022-11-27T14:05:44.209Z,9.84
2022-11-27T14:08:29.975Z,9.79
2022-11-27T14:11:14.180Z,9.79
2022-11-27T14:13:45.143Z,9.70
2022-11-27T14:16:33.944Z,9.71
2022-11-27T14:19:03.620Z,9.77
2022-11-27T14:21:40.877Z,9.77
2022-11-27T14:24:26.018Z,9.66
2022-11-27T14:26:54.184Z,9.52
2022-11-27T14:29:21.807Z,9.38
2022-11-27T14:31:59.163Z,9.28
2022-11-27T14:34:32.683Z,9.16
2022-11-27T14:36:59.975Z,9.12
2022-11-27T14:39:35.128Z,9.16
2022-11-27T14:42:05.641Z,9.10
2022-11-27T14:44:32.416Z,9.07
2022-11-27T14:47:01.694Z,9.08
2022-11-27T14:49:31.451Z,9.08
2022-11-27T14:52:04.395Z,9.19
2022-11-27T14:54:34.539Z,9.19
2022-11-27T14:57:02.255Z,9.19
2022-11-27T14:59:28.712Z,9.16
2022-11-27T15:02:06.106Z,9.10
2022-11-27T15:04:41.492Z,8.94
2022-11-27T15:07:29.311Z,8.84
2022-11-27T15:09:58.488Z,8.95
2022-11-27T15:12:39.322Z,9.01
2022-11-27T15:15:10.347Z,9.04
2022-11-27T15:17:39.522Z,9.02
2022-11-27T15:20:24.359Z,8.94
2022-11-27T15:22:53.786Z,8.88
2022-11-27T15:25:41.800Z,8.82
2022-11-27T15:28:23.428Z,8.74
2022-11-27T15:30:50.083Z,8.63
2022-11-27T15:33:26.264Z,8.57
2022-11-27T15:35:54.069Z,8.42
2022-11-27T15:38:21.330Z,8.36
2022-11-27T15:40:58.384Z,8.26
2022-11-27T15:43:24.818Z,8.12
2022-11-27T15:45:51.472Z,8.13
2022-11-27T15:48:19.459Z,8.07
2022-11-27T15:50:51.324Z,8.02
2022-11-27T15:53:18.281Z,7.99
2022-11-27T15:55:44.773Z,7.98
2022-11-27T15:58:11.245Z,7.96
2022-11-27T16:00:37.684Z,7.85
2022-11-27T16:03:04.142Z,7.95
2022-11-27T16:05:30.514Z,7.93
2022-11-27T16:08:00.198Z,7.98
2022-11-27T16:10:26.686Z,7.88
2022-11-27T16:12:55.087Z,7.92
2022-11-27T16:15:23.272Z,7.84
2022-11-27T16:17:50.652Z,7.78
2022-11-27T16:20:17.188Z,7.72
2022-11-27T16:22:43.564Z,7.64
2022-11-27T16:25:09.944Z,7.70
2022-11-27T16:27:36.500Z,7.71
2022-11-27T16:30:03.319Z,7.72
2022-11-27T16:32:29.833Z,7.77
2022-11-27T16:34:56.447Z,7.75
2022-11-27T16:37:23.418Z,7.75
2022-11-27T16:39:49.903Z,7.70
2022-11-27T16:42:16.268Z,7.71
2022-11-27T16:44:44.166Z,7.58
2022-11-27T16:47:11.035Z,7.60
2022-11-27T16:49:37.429Z,7.64
2022-11-27T16:52:04.042Z,7.70
2022-11-27T16:54:30.479Z,7.60
2022-11-27T16:56:56.974Z,7.68
2022-11-27T16:59:23.592Z,7.65
2022-11-27T17:01:49.992Z,7.68
2022-11-27T17:04:18.604Z,7.70
2022-11-27T17:06:45.942Z,7.68
2022-11-27T17:09:12.527Z,7.71
2022-11-27T17:11:43.433Z,7.68
2022-11-27T17:14:10.283Z,7.70
2022-11-27T17:16:39.827Z,7.65
2022-11-27T17:19:06.759Z,7.64
2022-11-27T17:21:35.012Z,7.65
2022-11-27T17:24:14.978Z,7.64
2022-11-27T17:26:43.393Z,7.72
2022-11-27T17:29:11.564Z,7.79
2022-11-27T17:31:38.500Z,7.82
2022-11-27T17:34:06.029Z,7.79
2022-11-27T17:36:36.770Z,7.85
2022-11-27T17:39:05.375Z,7.88
2022-11-27T17:41:31.889Z,7.91
2022-11-27T17:43:58.358Z,7.86
2022-11-27T17:46:27.264Z,7.89
2022-11-27T17:48:55.412Z,7.88
2022-11-27T17:51:21.885Z,7.89
2022-11-27T17:53:50.383Z,7.91
2022-11-27T17:56:18.964Z,7.95
2022-11-27T17:58:45.478Z,7.88
2022-11-27T18:01:23.620Z,7.81
2022-11-27T18:03:51.282Z,7.82
2022-11-27T18:06:19.277Z,7.81
2022-11-27T18:08:49.996Z,7.74
2022-11-27T18:11:19.611Z,7.74
2022-11-27T18:13:46.757Z,7.71
2022-11-27T18:16:20.091Z,7.64
2022-11-27T18:18:46.552Z,7.61
2022-11-27T18:21:18.759Z,7.60
2022-11-27T18:24:21.503Z,7.60
2022-11-27T18:29:21.382Z,7.51
2022-11-27T18:31:47.903Z,7.57
2022-11-27T18:34:14.330Z,7.50
2022-11-27T18:36:42.113Z,7.46
2022-11-27T18:39:08.574Z,7.47
2022-11-27T18:41:35.108Z,7.44
2022-11-27T18:44:01.620Z,7.39
2022-11-27T18:46:28.175Z,7.28
2022-11-27T18:48:54.712Z,7.28
2022-11-27T18:51:23.302Z,7.35
2022-11-27T18:53:51.381Z,7.37
2022-11-27T18:57:37.288Z,7.42
2022-11-27T19:00:04.510Z,7.39
2022-11-27T19:02:31.378Z,7.35
2022-11-27T19:05:00.622Z,7.37
2022-11-27T19:07:28.052Z,7.40
2022-11-27T19:09:54.766Z,7.40
2022-11-27T19:12:25.211Z,7.43
2022-11-27T19:14:51.718Z,7.43
2022-11-27T19:17:18.658Z,7.46
2022-11-27T19:20:00.265Z,7.48
2022-11-27T19:22:26.751Z,7.54
2022-11-27T19:24:53.430Z,7.54
2022-11-27T19:27:21.118Z,7.55
2022-11-27T19:29:48.860Z,7.54
2022-11-27T19:32:15.550Z,7.60
2022-11-27T19:34:42.360Z,7.58
2022-11-27T19:37:10.020Z,7.58
2022-11-27T19:39:36.397Z,7.61
2022-11-27T19:42:02.952Z,7.61
2022-11-27T19:44:29.591Z,7.67
2022-11-27T19:46:56.236Z,7.64
2022-11-27T19:49:22.885Z,7.70
2022-11-27T19:51:49.817Z,7.71
2022-11-27T19:54:19.103Z,7.70
2022-11-27T19:56:45.607Z,7.72
2022-11-27T19:59:12.566Z,7.78
2022-11-27T20:01:40.185Z,7.79
2022-11-27T20:04:07.714Z,7.79
2022-11-27T20:06:34.344Z,7.79
2022-11-27T20:09:02.740Z,7.77
2022-11-27T20:11:34.953Z,7.77
2022-11-27T20:14:04.083Z,7.78
2022-11-27T20:16:31.315Z,7.81
2022-11-27T20:18:58.022Z,7.78
2022-11-27T20:21:28.233Z,7.77
2022-11-27T20:23:55.186Z,7.81
2022-11-27T20:26:24.672Z,7.81
2022-11-27T20:28:52.539Z,7.78
2022-11-27T20:31:31.955Z,7.82
2022-11-27T20:34:01.493Z,7.79
2022-11-27T20:36:33.689Z,7.77
2022-11-27T20:39:01.332Z,7.78
2022-11-27T20:41:27.826Z,7.78
2022-11-27T20:43:56.581Z,7.79
2022-11-27T20:46:23.439Z,7.75
2022-11-27T20:48:51.594Z,7.77
2022-11-27T20:51:20.949Z,7.71
2022-11-27T20:53:48.840Z,7.72
2022-11-27T20:56:18.615Z,7.75
2022-11-27T20:58:46.278Z,7.77
2022-11-27T21:01:30.587Z,7.74
2022-11-27T21:04:00.244Z,7.71
2022-11-27T21:06:30.028Z,7.71
2022-11-27T21:08:59.114Z,7.63
2022-11-27T21:11:27.409Z,7.55
2022-11-27T21:14:03.332Z,7.47
2022-11-27T21:16:32.441Z,7.31
2022-11-27T21:19:01.942Z,7.24
2022-11-27T21:21:28.825Z,7.14
2022-11-27T21:23:55.483Z,7.17
2022-11-27T21:26:22.434Z,7.12
2022-11-27T21:28:50.122Z,7.16
2022-11-27T21:31:34.516Z,7.17
2022-11-27T21:34:04.595Z,7.22
2022-11-27T21:36:35.213Z,7.14
2022-11-27T21:39:04.113Z,7.19
2022-11-27T21:41:31.518Z,7.14
2022-11-27T21:44:00.103Z,7.17
2022-11-27T21:46:27.264Z,7.20
2022-11-27T21:48:57.081Z,7.20
2022-11-27T21:51:25.608Z,7.24
2022-11-27T21:53:53.641Z,7.24
2022-11-27T21:56:22.243Z,7.24
2022-11-27T21:58:49.309Z,7.23
2022-11-27T22:01:18.935Z,7.27
2022-11-27T22:03:47.041Z,7.28
2022-11-27T22:06:15.304Z,7.33
2022-11-27T22:08:43.584Z,7.35
2022-11-27T22:11:13.157Z,7.35
2022-11-27T22:13:41.030Z,7.34
2022-11-27T22:16:15.977Z,7.35
2022-11-27T22:18:43.186Z,7.30
2022-11-27T22:21:11.131Z,7.22
2022-11-27T22:23:38.346Z,7.07
2022-11-27T22:26:12.895Z,7.02
2022-11-27T22:28:39.659Z,6.97
2022-11-27T22:31:09.772Z,6.95
2022-11-27T22:33:37.047Z,6.86
2022-11-27T22:36:18.226Z,6.81
2022-11-27T22:38:46.031Z,6.72
2022-11-27T22:41:14.195Z,6.71
2022-11-27T22:43:41.476Z,6.67
2022-11-27T22:46:13.306Z,6.63
2022-11-27T22:48:40.169Z,6.56
2022-11-27T22:51:06.648Z,6.48
2022-11-27T22:53:33.225Z,6.47
2022-11-27T22:56:08.374Z,6.45
2022-11-27T22:58:39.847Z,6.44
2022-11-27T23:01:15.996Z,6.38
2022-11-27T23:03:43.215Z,6.37
2022-11-27T23:06:12.290Z,6.37
2022-11-27T23:08:40.431Z,6.35
2022-11-27T23:11:07.598Z,6.33
2022-11-27T23:13:34.320Z,6.27
2022-11-27T23:16:02.765Z,6.25
2022-11-27T23:18:29.481Z,6.27
2022-11-27T23:20:55.860Z,6.20
2022-11-27T23:23:22.245Z,6.20
2022-11-27T23:25:48.592Z,6.16
2022-11-27T23:28:15.254Z,6.13
2022-11-27T23:30:41.863Z,6.14
2022-11-27T23:33:08.270Z,6.16
2022-11-27T23:35:34.667Z,6.10
2022-11-27T23:38:01.076Z,6.16
2022-11-27T23:40:27.983Z,6.14
2022-11-27T23:42:54.428Z,6.17
2022-11-27T23:45:20.853Z,6.14
2022-11-27T23:47:50.247Z,6.17
2022-11-27T23:50:17.267Z,6.17
2022-11-27T23:52:43.721Z,6.14
2022-11-27T23:55:10.264Z,6.20
2022-11-27T23:57:36.978Z,6.20
